sensor_id;sensor_type;location;lat;lon;timestamp;P1;durP1;ratioP1;P2;durP2;ratioP2
6928;SDS011;3504;52.616;13.238;2022-07-23T00:04:28;11.77;;;8.43;;
6928;SDS011;3504;52.616;13.238;2022-07-23T00:09:29;12.40;;;8.27;;
6928;SDS011;3504;52.616;13.238;2022-07-23T00:14:31;10.70;;;8.30;;
6928;SDS011;3504;52.616;13.238;2022-07-23T00:19:32;8.57;;;7.73;;
6928;SDS011;3504;52.616;13.238;2022-07-23T00:24:33;8.63;;;7.72;;
6928;SDS011;3504;52.616;13.238;2022-07-23T00:29:34;10.93;;;7.87;;
6928;SDS011;3504;52.616;13.238;2022-07-23T00:34:35;11.07;;;8.20;;
6928;SDS011;3504;52.616;13.238;2022-07-23T00:39:37;9.50;;;8.00;;
6928;SDS011;3504;52.616;13.238;2022-07-23T00:44:37;9.53;;;7.63;;
6928;SDS011;3504;52.616;13.238;2022-07-23T00:49:37;11.03;;;7.67;;
6928;SDS011;3504;52.616;13.238;2022-07-23T00:54:38;8.97;;;8.07;;
6928;SDS011;3504;52.616;13.238;2022-07-23T00:59:41;9.13;;;8.13;;
6928;SDS011;3504;52.616;13.238;2022-07-23T01:04:42;8.90;;;7.90;;
6928;SDS011;3504;52.616;13.238;2022-07-23T01:09:44;12.23;;;8.47;;
6928;SDS011;3504;52.616;13.238;2022-07-23T01:14:45;10.57;;;8.57;;
6928;SDS011;3504;52.616;13.238;2022-07-23T01:19:54;9.97;;;8.67;;
6928;SDS011;3504;52.616;13.238;2022-07-23T01:24:54;9.53;;;7.87;;
6928;SDS011;3504;52.616;13.238;2022-07-23T01:30:00;9.03;;;7.97;;
6928;SDS011;3504;52.616;13.238;2022-07-23T01:35:01;9.17;;;8.27;;
6928;SDS011;3504;52.616;13.238;2022-07-23T01:40:05;10.83;;;8.20;;
6928;SDS011;3504;52.616;13.238;2022-07-23T01:45:06;9.07;;;7.67;;
6928;SDS011;3504;52.616;13.238;2022-07-23T01:50:08;9.50;;;7.77;;
6928;SDS011;3504;52.616;13.238;2022-07-23T01:55:33;9.80;;;8.30;;
6928;SDS011;3504;52.616;13.238;2022-07-23T02:00:35;13.37;;;8.80;;
6928;SDS011;3504;52.616;13.238;2022-07-23T02:05:36;9.77;;;8.77;;
6928;SDS011;3504;52.616;13.238;2022-07-23T02:10:39;10.53;;;9.43;;
6928;SDS011;3504;52.616;13.238;2022-07-23T02:15:39;9.87;;;8.77;;
6928;SDS011;3504;52.616;13.238;2022-07-23T02:20:41;10.43;;;9.33;;
6928;SDS011;3504;52.616;13.238;2022-07-23T02:25:42;10.90;;;8.53;;
6928;SDS011;3504;52.616;13.238;2022-07-23T02:30:45;10.57;;;8.33;;
6928;SDS011;3504;52.616;13.238;2022-07-23T02:35:45;12.23;;;8.63;;
6928;SDS011;3504;52.616;13.238;2022-07-23T02:40:47;9.60;;;8.47;;
6928;SDS011;3504;52.616;13.238;2022-07-23T02:45:48;10.17;;;8.23;;
6928;SDS011;3504;52.616;13.238;2022-07-23T02:50:50;8.70;;;7.60;;
6928;SDS011;3504;52.616;13.238;2022-07-23T02:55:56;8.87;;;7.20;;
6928;SDS011;3504;52.616;13.238;2022-07-23T03:00:59;9.90;;;7.27;;
6928;SDS011;3504;52.616;13.238;2022-07-23T03:06:00;11.23;;;7.70;;
6928;SDS011;3504;52.616;13.238;2022-07-23T03:11:01;11.53;;;7.13;;
6928;SDS011;3504;52.616;13.238;2022-07-23T03:16:02;11.07;;;7.00;;
6928;SDS011;3504;52.616;13.238;2022-07-23T03:21:04;12.60;;;7.60;;
6928;SDS011;3504;52.616;13.238;2022-07-23T03:26:05;7.90;;;7.10;;
6928;SDS011;3504;52.616;13.238;2022-07-23T03:31:07;9.27;;;7.40;;
6928;SDS011;3504;52.616;13.238;2022-07-23T03:36:08;9.80;;;6.90;;
6928;SDS011;3504;52.616;13.238;2022-07-23T03:41:13;7.60;;;6.37;;
6928;SDS011;3504;52.616;13.238;2022-07-23T03:46:14;9.43;;;7.00;;
6928;SDS011;3504;52.616;13.238;2022-07-23T03:51:16;9.17;;;6.17;;
6928;SDS011;3504;52.616;13.238;2022-07-23T03:56:17;7.50;;;5.83;;
6928;SDS011;3504;52.616;13.238;2022-07-23T04:01:19;9.20;;;5.87;;
6928;SDS011;3504;52.616;13.238;2022-07-23T04:06:19;7.40;;;5.57;;
6928;SDS011;3504;52.616;13.238;2022-07-23T04:11:22;8.93;;;5.17;;
6928;SDS011;3504;52.616;13.238;2022-07-23T04:16:22;5.93;;;5.10;;
6928;SDS011;3504;52.616;13.238;2022-07-23T04:21:25;8.80;;;5.43;;
6928;SDS011;3504;52.616;13.238;2022-07-23T04:26:25;8.50;;;5.33;;
6928;SDS011;3504;52.616;13.238;2022-07-23T04:31:27;6.20;;;5.53;;
6928;SDS011;3504;52.616;13.238;2022-07-23T04:36:29;6.67;;;5.53;;
6928;SDS011;3504;52.616;13.238;2022-07-23T04:41:30;6.27;;;5.10;;
6928;SDS011;3504;52.616;13.238;2022-07-23T04:46:31;6.23;;;5.17;;
6928;SDS011;3504;52.616;13.238;2022-07-23T04:51:34;8.80;;;5.37;;
6928;SDS011;3504;52.616;13.238;2022-07-23T04:56:34;8.77;;;5.70;;
6928;SDS011;3504;52.616;13.238;2022-07-23T05:01:36;8.70;;;6.23;;
6928;SDS011;3504;52.616;13.238;2022-07-23T05:06:37;9.97;;;5.67;;
6928;SDS011;3504;52.616;13.238;2022-07-23T05:11:38;12.77;;;5.57;;
6928;SDS011;3504;52.616;13.238;2022-07-23T05:16:39;6.90;;;5.03;;
6928;SDS011;3504;52.616;13.238;2022-07-23T05:21:47;6.43;;;4.90;;
6928;SDS011;3504;52.616;13.238;2022-07-23T05:26:48;11.50;;;5.23;;
6928;SDS011;3504;52.616;13.238;2022-07-23T05:31:51;8.00;;;5.27;;
6928;SDS011;3504;52.616;13.238;2022-07-23T05:36:52;9.43;;;4.87;;
6928;SDS011;3504;52.616;13.238;2022-07-23T05:41:55;10.60;;;5.60;;
6928;SDS011;3504;52.616;13.238;2022-07-23T05:46:55;13.37;;;5.50;;
6928;SDS011;3504;52.616;13.238;2022-07-23T05:52:03;8.27;;;5.57;;
6928;SDS011;3504;52.616;13.238;2022-07-23T05:57:25;5.93;;;4.83;;
6928;SDS011;3504;52.616;13.238;2022-07-23T06:02:27;10.10;;;6.47;;
6928;SDS011;3504;52.616;13.238;2022-07-23T06:07:29;10.87;;;6.27;;
6928;SDS011;3504;52.616;13.238;2022-07-23T06:12:31;9.60;;;5.87;;
6928;SDS011;3504;52.616;13.238;2022-07-23T06:17:32;7.47;;;6.30;;
6928;SDS011;3504;52.616;13.238;2022-07-23T06:22:34;8.67;;;5.70;;
6928;SDS011;3504;52.616;13.238;2022-07-23T06:27:35;7.87;;;6.23;;
6928;SDS011;3504;52.616;13.238;2022-07-23T06:32:37;7.83;;;5.80;;
6928;SDS011;3504;52.616;13.238;2022-07-23T06:37:37;8.67;;;4.97;;
6928;SDS011;3504;52.616;13.238;2022-07-23T06:42:39;8.87;;;5.07;;
6928;SDS011;3504;52.616;13.238;2022-07-23T06:47:40;7.93;;;5.30;;
6928;SDS011;3504;52.616;13.238;2022-07-23T06:52:42;6.50;;;5.47;;
6928;SDS011;3504;52.616;13.238;2022-07-23T06:57:43;7.47;;;5.80;;
6928;SDS011;3504;52.616;13.238;2022-07-23T07:02:45;12.23;;;6.30;;
6928;SDS011;3504;52.616;13.238;2022-07-23T07:07:45;11.83;;;6.93;;
6928;SDS011;3504;52.616;13.238;2022-07-23T07:12:47;8.07;;;6.67;;
6928;SDS011;3504;52.616;13.238;2022-07-23T07:17:47;8.20;;;5.93;;
6928;SDS011;3504;52.616;13.238;2022-07-23T07:22:49;8.77;;;6.47;;
6928;SDS011;3504;52.616;13.238;2022-07-23T07:27:50;8.27;;;6.00;;
6928;SDS011;3504;52.616;13.238;2022-07-23T07:32:52;9.23;;;5.83;;
6928;SDS011;3504;52.616;13.238;2022-07-23T07:37:52;9.27;;;6.50;;
6928;SDS011;3504;52.616;13.238;2022-07-23T07:42:54;11.43;;;6.33;;
6928;SDS011;3504;52.616;13.238;2022-07-23T07:47:56;8.23;;;5.30;;
6928;SDS011;3504;52.616;13.238;2022-07-23T07:52:58;7.13;;;5.37;;
6928;SDS011;3504;52.616;13.238;2022-07-23T07:57:59;6.63;;;5.47;;
6928;SDS011;3504;52.616;13.238;2022-07-23T08:03:00;9.02;;;5.03;;
6928;SDS011;3504;52.616;13.238;2022-07-23T08:08:01;9.20;;;4.93;;
6928;SDS011;3504;52.616;13.238;2022-07-23T08:13:03;10.73;;;4.88;;
6928;SDS011;3504;52.616;13.238;2022-07-23T08:18:03;6.70;;;3.50;;
6928;SDS011;3504;52.616;13.238;2022-07-23T08:23:06;8.15;;;4.13;;
6928;SDS011;3504;52.616;13.238;2022-07-23T08:28:09;5.30;;;4.05;;
6928;SDS011;3504;52.616;13.238;2022-07-23T08:33:14;7.88;;;4.68;;
6928;SDS011;3504;52.616;13.238;2022-07-23T08:38:17;7.43;;;4.00;;
6928;SDS011;3504;52.616;13.238;2022-07-23T08:43:22;6.20;;;3.72;;
6928;SDS011;3504;52.616;13.238;2022-07-23T08:48:25;6.43;;;4.05;;
6928;SDS011;3504;52.616;13.238;2022-07-23T08:53:29;7.38;;;3.55;;
6928;SDS011;3504;52.616;13.238;2022-07-23T08:58:31;6.15;;;3.65;;
6928;SDS011;3504;52.616;13.238;2022-07-23T09:03:34;6.10;;;3.83;;
6928;SDS011;3504;52.616;13.238;2022-07-23T09:08:40;6.85;;;3.85;;
6928;SDS011;3504;52.616;13.238;2022-07-23T09:13:52;6.55;;;3.42;;
6928;SDS011;3504;52.616;13.238;2022-07-23T09:39:39;5.18;;;3.45;;
6928;SDS011;3504;52.616;13.238;2022-07-23T09:44:43;8.93;;;3.20;;
6928;SDS011;3504;52.616;13.238;2022-07-23T09:55:10;5.60;;;3.30;;
6928;SDS011;3504;52.616;13.238;2022-07-23T10:00:11;6.82;;;4.35;;
6928;SDS011;3504;52.616;13.238;2022-07-23T10:05:14;5.75;;;4.45;;
6928;SDS011;3504;52.616;13.238;2022-07-23T10:10:45;6.78;;;3.88;;
6928;SDS011;3504;52.616;13.238;2022-07-23T10:16:10;8.90;;;4.20;;
6928;SDS011;3504;52.616;13.238;2022-07-23T10:21:11;7.55;;;4.45;;
6928;SDS011;3504;52.616;13.238;2022-07-23T10:27:08;7.20;;;3.88;;
6928;SDS011;3504;52.616;13.238;2022-07-23T10:32:08;4.93;;;3.70;;
6928;SDS011;3504;52.616;13.238;2022-07-23T10:37:39;7.65;;;4.47;;
6928;SDS011;3504;52.616;13.238;2022-07-23T10:42:44;5.90;;;4.40;;
6928;SDS011;3504;52.616;13.238;2022-07-23T10:47:48;6.38;;;3.80;;
6928;SDS011;3504;52.616;13.238;2022-07-23T10:58:07;5.65;;;3.78;;
6928;SDS011;3504;52.616;13.238;2022-07-23T11:03:27;5.13;;;3.85;;
6928;SDS011;3504;52.616;13.238;2022-07-23T11:08:38;6.13;;;4.07;;
6928;SDS011;3504;52.616;13.238;2022-07-23T11:13:44;6.03;;;4.50;;
6928;SDS011;3504;52.616;13.238;2022-07-23T11:29:47;7.20;;;5.22;;
6928;SDS011;3504;52.616;13.238;2022-07-23T11:39:50;10.77;;;5.88;;
6928;SDS011;3504;52.616;13.238;2022-07-23T11:44:55;6.90;;;4.60;;
6928;SDS011;3504;52.616;13.238;2022-07-23T11:49:56;9.65;;;4.25;;
6928;SDS011;3504;52.616;13.238;2022-07-23T11:55:03;5.85;;;4.40;;
6928;SDS011;3504;52.616;13.238;2022-07-23T12:00:15;6.13;;;3.90;;
6928;SDS011;3504;52.616;13.238;2022-07-23T12:05:22;7.53;;;4.13;;
6928;SDS011;3504;52.616;13.238;2022-07-23T12:10:30;7.03;;;4.38;;
6928;SDS011;3504;52.616;13.238;2022-07-23T12:15:40;5.88;;;3.30;;
6928;SDS011;3504;52.616;13.238;2022-07-23T12:20:46;5.15;;;3.78;;
6928;SDS011;3504;52.616;13.238;2022-07-23T12:25:52;5.82;;;3.67;;
6928;SDS011;3504;52.616;13.238;2022-07-23T12:30:57;6.07;;;3.85;;
6928;SDS011;3504;52.616;13.238;2022-07-23T12:35:59;4.32;;;3.35;;
6928;SDS011;3504;52.616;13.238;2022-07-23T12:41:05;5.03;;;3.03;;
6928;SDS011;3504;52.616;13.238;2022-07-23T12:51:15;5.05;;;3.88;;
6928;SDS011;3504;52.616;13.238;2022-07-23T12:57:07;4.70;;;3.22;;
6928;SDS011;3504;52.616;13.238;2022-07-23T13:01:53;4.10;;;3.22;;
6928;SDS011;3504;52.616;13.238;2022-07-23T13:06:59;3.72;;;3.13;;
6928;SDS011;3504;52.616;13.238;2022-07-23T13:12:02;6.05;;;3.20;;
6928;SDS011;3504;52.616;13.238;2022-07-23T13:17:03;5.25;;;3.13;;
6928;SDS011;3504;52.616;13.238;2022-07-23T13:22:05;3.85;;;2.97;;
6928;SDS011;3504;52.616;13.238;2022-07-23T13:27:06;4.07;;;3.03;;
6928;SDS011;3504;52.616;13.238;2022-07-23T13:32:09;3.33;;;2.83;;
6928;SDS011;3504;52.616;13.238;2022-07-23T13:37:11;5.38;;;2.65;;
6928;SDS011;3504;52.616;13.238;2022-07-23T13:42:14;3.65;;;2.90;;
6928;SDS011;3504;52.616;13.238;2022-07-23T13:47:14;2.75;;;2.55;;
6928;SDS011;3504;52.616;13.238;2022-07-23T13:52:16;2.85;;;2.00;;
6928;SDS011;3504;52.616;13.238;2022-07-23T13:57:16;2.78;;;2.50;;
6928;SDS011;3504;52.616;13.238;2022-07-23T14:02:18;3.17;;;2.38;;
6928;SDS011;3504;52.616;13.238;2022-07-23T14:07:19;3.22;;;2.03;;
6928;SDS011;3504;52.616;13.238;2022-07-23T14:12:20;3.10;;;2.28;;
6928;SDS011;3504;52.616;13.238;2022-07-23T14:17:21;3.53;;;2.10;;
6928;SDS011;3504;52.616;13.238;2022-07-23T14:22:24;5.85;;;3.42;;
6928;SDS011;3504;52.616;13.238;2022-07-23T14:27:25;4.70;;;2.17;;
6928;SDS011;3504;52.616;13.238;2022-07-23T14:32:29;2.72;;;2.50;;
6928;SDS011;3504;52.616;13.238;2022-07-23T14:37:29;3.92;;;2.10;;
6928;SDS011;3504;52.616;13.238;2022-07-23T14:42:31;3.13;;;1.83;;
6928;SDS011;3504;52.616;13.238;2022-07-23T14:47:32;3.55;;;1.70;;
6928;SDS011;3504;52.616;13.238;2022-07-23T14:52:33;3.88;;;2.15;;
6928;SDS011;3504;52.616;13.238;2022-07-23T14:57:34;2.30;;;1.90;;
6928;SDS011;3504;52.616;13.238;2022-07-23T15:02:36;2.92;;;1.80;;
6928;SDS011;3504;52.616;13.238;2022-07-23T15:07:36;3.80;;;1.77;;
6928;SDS011;3504;52.616;13.238;2022-07-23T15:12:38;2.28;;;1.50;;
6928;SDS011;3504;52.616;13.238;2022-07-23T15:17:38;3.38;;;1.70;;
6928;SDS011;3504;52.616;13.238;2022-07-23T15:22:40;2.65;;;1.63;;
6928;SDS011;3504;52.616;13.238;2022-07-23T15:27:41;1.70;;;1.40;;
6928;SDS011;3504;52.616;13.238;2022-07-23T15:32:42;2.75;;;1.40;;
6928;SDS011;3504;52.616;13.238;2022-07-23T15:37:43;3.45;;;1.60;;
6928;SDS011;3504;52.616;13.238;2022-07-23T15:42:45;2.00;;;1.90;;
6928;SDS011;3504;52.616;13.238;2022-07-23T15:47:46;2.08;;;1.85;;
6928;SDS011;3504;52.616;13.238;2022-07-23T15:52:52;2.10;;;1.60;;
6928;SDS011;3504;52.616;13.238;2022-07-23T15:57:52;3.75;;;1.90;;
6928;SDS011;3504;52.616;13.238;2022-07-23T16:02:54;2.83;;;2.15;;
6928;SDS011;3504;52.616;13.238;2022-07-23T16:07:55;4.78;;;1.90;;
6928;SDS011;3504;52.616;13.238;2022-07-23T16:12:57;4.68;;;2.17;;
6928;SDS011;3504;52.616;13.238;2022-07-23T16:17:58;2.67;;;1.85;;
6928;SDS011;3504;52.616;13.238;2022-07-23T16:22:59;3.78;;;2.58;;
6928;SDS011;3504;52.616;13.238;2022-07-23T16:28:00;4.22;;;1.80;;
6928;SDS011;3504;52.616;13.238;2022-07-23T16:33:02;2.63;;;1.92;;
6928;SDS011;3504;52.616;13.238;2022-07-23T16:38:03;3.67;;;1.88;;
6928;SDS011;3504;52.616;13.238;2022-07-23T16:43:05;2.30;;;1.80;;
6928;SDS011;3504;52.616;13.238;2022-07-23T16:48:06;3.38;;;1.65;;
6928;SDS011;3504;52.616;13.238;2022-07-23T16:53:07;1.85;;;1.70;;
6928;SDS011;3504;52.616;13.238;2022-07-23T16:58:07;2.10;;;1.70;;
6928;SDS011;3504;52.616;13.238;2022-07-23T17:03:09;15.30;;;11.20;;
6928;SDS011;3504;52.616;13.238;2022-07-23T17:08:09;4.93;;;3.95;;
6928;SDS011;3504;52.616;13.238;2022-07-23T17:13:11;2.35;;;2.00;;
6928;SDS011;3504;52.616;13.238;2022-07-23T17:18:11;3.60;;;2.50;;
6928;SDS011;3504;52.616;13.238;2022-07-23T17:23:14;2.90;;;1.75;;
6928;SDS011;3504;52.616;13.238;2022-07-23T17:28:14;1.42;;;1.33;;
6928;SDS011;3504;52.616;13.238;2022-07-23T17:33:16;2.80;;;1.70;;
6928;SDS011;3504;52.616;13.238;2022-07-23T17:38:17;1.52;;;1.38;;
6928;SDS011;3504;52.616;13.238;2022-07-23T17:43:18;3.03;;;1.60;;
6928;SDS011;3504;52.616;13.238;2022-07-23T17:48:19;2.00;;;1.45;;
6928;SDS011;3504;52.616;13.238;2022-07-23T17:53:20;2.42;;;1.35;;
6928;SDS011;3504;52.616;13.238;2022-07-23T17:58:23;0.98;;;0.98;;
6928;SDS011;3504;52.616;13.238;2022-07-23T18:03:25;3.25;;;1.20;;
6928;SDS011;3504;52.616;13.238;2022-07-23T18:08:25;1.55;;;1.10;;
6928;SDS011;3504;52.616;13.238;2022-07-23T18:13:27;2.08;;;1.50;;
6928;SDS011;3504;52.616;13.238;2022-07-23T18:18:28;2.67;;;1.40;;
6928;SDS011;3504;52.616;13.238;2022-07-23T18:23:30;2.30;;;1.25;;
6928;SDS011;3504;52.616;13.238;2022-07-23T18:28:31;2.25;;;1.50;;
6928;SDS011;3504;52.616;13.238;2022-07-23T18:33:33;2.17;;;1.20;;
6928;SDS011;3504;52.616;13.238;2022-07-23T18:38:33;3.25;;;1.42;;
6928;SDS011;3504;52.616;13.238;2022-07-23T18:43:35;2.35;;;1.30;;
6928;SDS011;3504;52.616;13.238;2022-07-23T18:48:36;1.67;;;1.40;;
6928;SDS011;3504;52.616;13.238;2022-07-23T18:53:38;2.08;;;1.38;;
6928;SDS011;3504;52.616;13.238;2022-07-23T18:58:38;2.20;;;1.17;;
6928;SDS011;3504;52.616;13.238;2022-07-23T19:03:40;1.75;;;1.00;;
6928;SDS011;3504;52.616;13.238;2022-07-23T19:08:41;1.63;;;0.98;;
6928;SDS011;3504;52.616;13.238;2022-07-23T19:13:42;1.27;;;0.90;;
6928;SDS011;3504;52.616;13.238;2022-07-23T19:18:43;2.00;;;1.38;;
6928;SDS011;3504;52.616;13.238;2022-07-23T19:23:45;1.17;;;0.95;;
6928;SDS011;3504;52.616;13.238;2022-07-23T19:28:45;1.60;;;1.17;;
6928;SDS011;3504;52.616;13.238;2022-07-23T19:33:48;2.67;;;1.73;;
6928;SDS011;3504;52.616;13.238;2022-07-23T19:38:48;1.88;;;1.15;;
6928;SDS011;3504;52.616;13.238;2022-07-23T19:43:50;1.88;;;1.20;;
6928;SDS011;3504;52.616;13.238;2022-07-23T19:48:51;1.70;;;1.02;;
6928;SDS011;3504;52.616;13.238;2022-07-23T19:53:53;1.27;;;1.20;;
6928;SDS011;3504;52.616;13.238;2022-07-23T19:58:53;1.75;;;1.55;;
6928;SDS011;3504;52.616;13.238;2022-07-23T20:03:55;2.50;;;1.63;;
6928;SDS011;3504;52.616;13.238;2022-07-23T20:08:55;1.65;;;1.00;;
6928;SDS011;3504;52.616;13.238;2022-07-23T20:13:57;1.35;;;1.15;;
6928;SDS011;3504;52.616;13.238;2022-07-23T20:18:58;0.82;;;0.82;;
6928;SDS011;3504;52.616;13.238;2022-07-23T20:24:00;1.30;;;1.20;;
6928;SDS011;3504;52.616;13.238;2022-07-23T20:29:01;2.50;;;1.10;;
6928;SDS011;3504;52.616;13.238;2022-07-23T20:34:02;1.40;;;1.17;;
6928;SDS011;3504;52.616;13.238;2022-07-23T20:39:03;3.88;;;1.00;;
6928;SDS011;3504;52.616;13.238;2022-07-23T20:44:07;1.88;;;1.35;;
6928;SDS011;3504;52.616;13.238;2022-07-23T20:49:10;2.05;;;1.50;;
6928;SDS011;3504;52.616;13.238;2022-07-23T20:54:13;2.33;;;1.23;;
6928;SDS011;3504;52.616;13.238;2022-07-23T20:59:13;1.45;;;1.30;;
6928;SDS011;3504;52.616;13.238;2022-07-23T21:04:15;3.10;;;1.58;;
6928;SDS011;3504;52.616;13.238;2022-07-23T21:09:16;2.55;;;1.90;;
6928;SDS011;3504;52.616;13.238;2022-07-23T21:14:17;3.88;;;1.60;;
6928;SDS011;3504;52.616;13.238;2022-07-23T21:19:18;4.50;;;2.17;;
6928;SDS011;3504;52.616;13.238;2022-07-23T21:24:20;10.48;;;8.98;;
6928;SDS011;3504;52.616;13.238;2022-07-23T21:29:20;6.40;;;5.75;;
6928;SDS011;3504;52.616;13.238;2022-07-23T21:34:25;4.43;;;4.05;;
6928;SDS011;3504;52.616;13.238;2022-07-23T21:39:26;4.10;;;3.20;;
6928;SDS011;3504;52.616;13.238;2022-07-23T21:44:28;3.42;;;2.28;;
6928;SDS011;3504;52.616;13.238;2022-07-23T21:49:29;5.30;;;3.08;;
6928;SDS011;3504;52.616;13.238;2022-07-23T21:54:31;3.58;;;2.50;;
6928;SDS011;3504;52.616;13.238;2022-07-23T21:59:31;3.83;;;2.83;;
6928;SDS011;3504;52.616;13.238;2022-07-23T22:04:33;6.85;;;4.45;;
6928;SDS011;3504;52.616;13.238;2022-07-23T22:09:34;5.33;;;4.47;;
6928;SDS011;3504;52.616;13.238;2022-07-23T22:14:36;5.17;;;3.73;;
6928;SDS011;3504;52.616;13.238;2022-07-23T22:19:36;4.20;;;3.50;;
6928;SDS011;3504;52.616;13.238;2022-07-23T22:24:38;3.60;;;3.17;;
6928;SDS011;3504;52.616;13.238;2022-07-23T22:29:39;4.90;;;3.30;;
6928;SDS011;3504;52.616;13.238;2022-07-23T22:34:40;4.00;;;3.00;;
6928;SDS011;3504;52.616;13.238;2022-07-23T22:39:41;2.67;;;2.40;;
6928;SDS011;3504;52.616;13.238;2022-07-23T22:44:42;3.07;;;2.67;;
6928;SDS011;3504;52.616;13.238;2022-07-23T22:49:43;4.83;;;2.97;;
6928;SDS011;3504;52.616;13.238;2022-07-23T22:54:44;5.00;;;2.87;;
6928;SDS011;3504;52.616;13.238;2022-07-23T22:59:45;3.00;;;2.67;;
6928;SDS011;3504;52.616;13.238;2022-07-23T23:04:47;6.47;;;3.03;;
6928;SDS011;3504;52.616;13.238;2022-07-23T23:09:47;3.27;;;2.70;;
6928;SDS011;3504;52.616;13.238;2022-07-23T23:14:49;2.70;;;2.50;;
6928;SDS011;3504;52.616;13.238;2022-07-23T23:19:49;3.10;;;2.30;;
6928;SDS011;3504;52.616;13.238;2022-07-23T23:24:51;2.40;;;2.20;;
6928;SDS011;3504;52.616;13.238;2022-07-23T23:29:52;3.23;;;2.40;;
6928;SDS011;3504;52.616;13.238;2022-07-23T23:34:53;3.93;;;2.43;;
6928;SDS011;3504;52.616;13.238;2022-07-23T23:39:54;2.67;;;2.20;;
6928;SDS011;3504;52.616;13.238;2022-07-23T23:44:55;3.63;;;2.20;;
6928;SDS011;3504;52.616;13.238;2022-07-23T23:49:56;2.30;;;2.10;;
6928;SDS011;3504;52.616;13.238;2022-07-23T23:54:58;3.00;;;2.17;;
6928;SDS011;3504;52.616;13.238;2022-07-23T23:59:58;3.70;;;2.13;;
